Terminal Aerodrome Forecast
Issued by NWS Portland, OR

Home | Current Version | Previous Version | Text Only | Print | Product List | Glossary On
Versions: 1 2 3 4 5 6 7 8 9 10 11 12 13 14 15 16 17 18 19 20 21 22
000
FTUS46 KPQR 222332
TAFEUG
TAF
KEUG 222332Z 2300/2324 VRB05KT P6SM -SHRAGS SCT035 BKN045 BKN100
     FM230300 VRB03KT P6SM SCT035 SCT050
     FM230700 00000KT 4SM BR SCT002 SCT045
     FM230900 00000KT 1/2SM FG OVC002
     FM231700 00000KT 3SM BR BKN003 BKN045
     FM231900 22005KT P6SM VCSH SCT040=

USA.gov is the U.S. government's official web portal to all federal, state and local government web resources and services.